sensor_id;sensor_type;location;lat;lon;timestamp;P1;durP1;ratioP1;P2;durP2;ratioP2
35606;SDS011;21729;58.392;15.656;2023-03-16T00:01:11;1.77;;;0.80;;
35606;SDS011;21729;58.392;15.656;2023-03-16T00:03:38;1.42;;;0.63;;
35606;SDS011;21729;58.392;15.656;2023-03-16T00:06:05;2.70;;;0.70;;
35606;SDS011;21729;58.392;15.656;2023-03-16T00:08:32;1.87;;;0.80;;
35606;SDS011;21729;58.392;15.656;2023-03-16T00:11:01;3.50;;;0.90;;
35606;SDS011;21729;58.392;15.656;2023-03-16T00:13:28;1.63;;;1.00;;
35606;SDS011;21729;58.392;15.656;2023-03-16T00:15:58;3.13;;;0.70;;
35606;SDS011;21729;58.392;15.656;2023-03-16T00:18:27;1.77;;;0.60;;
35606;SDS011;21729;58.392;15.656;2023-03-16T00:20:55;1.98;;;0.80;;
35606;SDS011;21729;58.392;15.656;2023-03-16T00:23:24;3.72;;;0.80;;
35606;SDS011;21729;58.392;15.656;2023-03-16T00:25:52;2.28;;;0.70;;
35606;SDS011;21729;58.392;15.656;2023-03-16T00:28:20;3.33;;;0.82;;
35606;SDS011;21729;58.392;15.656;2023-03-16T00:30:47;2.70;;;0.82;;
35606;SDS011;21729;58.392;15.656;2023-03-16T00:33:16;2.25;;;0.80;;
35606;SDS011;21729;58.392;15.656;2023-03-16T00:35:44;2.70;;;0.93;;
35606;SDS011;21729;58.392;15.656;2023-03-16T00:38:14;3.40;;;1.00;;
35606;SDS011;21729;58.392;15.656;2023-03-16T00:40:41;1.45;;;0.80;;
35606;SDS011;21729;58.392;15.656;2023-03-16T00:43:09;2.78;;;0.90;;
35606;SDS011;21729;58.392;15.656;2023-03-16T00:45:36;1.50;;;0.70;;
35606;SDS011;21729;58.392;15.656;2023-03-16T00:48:03;2.00;;;0.80;;
35606;SDS011;21729;58.392;15.656;2023-03-16T00:50:31;1.80;;;0.80;;
35606;SDS011;21729;58.392;15.656;2023-03-16T00:52:59;2.05;;;0.75;;
35606;SDS011;21729;58.392;15.656;2023-03-16T00:55:26;1.90;;;0.80;;
35606;SDS011;21729;58.392;15.656;2023-03-16T00:57:53;1.67;;;0.80;;
35606;SDS011;21729;58.392;15.656;2023-03-16T01:00:20;1.08;;;0.80;;
35606;SDS011;21729;58.392;15.656;2023-03-16T01:02:51;1.52;;;0.82;;
35606;SDS011;21729;58.392;15.656;2023-03-16T01:05:18;2.40;;;0.82;;
35606;SDS011;21729;58.392;15.656;2023-03-16T01:07:46;1.77;;;0.80;;
35606;SDS011;21729;58.392;15.656;2023-03-16T01:10:14;2.45;;;0.90;;
35606;SDS011;21729;58.392;15.656;2023-03-16T01:12:41;1.75;;;0.90;;
35606;SDS011;21729;58.392;15.656;2023-03-16T01:15:10;3.73;;;0.90;;
35606;SDS011;21729;58.392;15.656;2023-03-16T01:17:37;2.00;;;0.98;;
35606;SDS011;21729;58.392;15.656;2023-03-16T01:20:05;3.60;;;1.00;;
35606;SDS011;21729;58.392;15.656;2023-03-16T01:22:36;2.73;;;0.90;;
35606;SDS011;21729;58.392;15.656;2023-03-16T01:25:05;1.85;;;0.80;;
35606;SDS011;21729;58.392;15.656;2023-03-16T01:27:32;2.85;;;0.80;;
35606;SDS011;21729;58.392;15.656;2023-03-16T01:30:00;2.00;;;0.80;;
35606;SDS011;21729;58.392;15.656;2023-03-16T01:32:29;2.47;;;1.02;;
35606;SDS011;21729;58.392;15.656;2023-03-16T01:34:56;2.20;;;0.90;;
35606;SDS011;21729;58.392;15.656;2023-03-16T01:37:23;3.67;;;0.90;;
35606;SDS011;21729;58.392;15.656;2023-03-16T01:39:51;1.98;;;0.90;;
35606;SDS011;21729;58.392;15.656;2023-03-16T01:42:19;2.20;;;0.90;;
35606;SDS011;21729;58.392;15.656;2023-03-16T01:44:51;2.58;;;1.20;;
35606;SDS011;21729;58.392;15.656;2023-03-16T01:47:20;2.00;;;0.85;;
35606;SDS011;21729;58.392;15.656;2023-03-16T01:49:48;1.83;;;0.90;;
35606;SDS011;21729;58.392;15.656;2023-03-16T01:52:20;1.80;;;0.80;;
35606;SDS011;21729;58.392;15.656;2023-03-16T01:54:50;3.35;;;1.10;;
35606;SDS011;21729;58.392;15.656;2023-03-16T01:57:21;1.73;;;1.00;;
35606;SDS011;21729;58.392;15.656;2023-03-16T01:59:51;3.65;;;1.10;;
35606;SDS011;21729;58.392;15.656;2023-03-16T02:02:22;1.73;;;0.80;;
35606;SDS011;21729;58.392;15.656;2023-03-16T02:04:52;3.65;;;1.00;;
35606;SDS011;21729;58.392;15.656;2023-03-16T02:07:23;3.37;;;1.07;;
35606;SDS011;21729;58.392;15.656;2023-03-16T02:09:53;2.40;;;1.20;;
35606;SDS011;21729;58.392;15.656;2023-03-16T02:12:25;3.20;;;0.90;;
35606;SDS011;21729;58.392;15.656;2023-03-16T02:14:53;3.17;;;0.93;;
35606;SDS011;21729;58.392;15.656;2023-03-16T02:17:21;4.18;;;1.00;;
35606;SDS011;21729;58.392;15.656;2023-03-16T02:19:52;2.50;;;0.90;;
35606;SDS011;21729;58.392;15.656;2023-03-16T02:22:32;2.30;;;1.20;;
35606;SDS011;21729;58.392;15.656;2023-03-16T02:25:00;3.38;;;1.00;;
35606;SDS011;21729;58.392;15.656;2023-03-16T02:27:30;2.13;;;0.90;;
35606;SDS011;21729;58.392;15.656;2023-03-16T02:30:05;2.63;;;1.13;;
35606;SDS011;21729;58.392;15.656;2023-03-16T02:32:34;3.20;;;1.13;;
35606;SDS011;21729;58.392;15.656;2023-03-16T02:35:03;4.13;;;1.10;;
35606;SDS011;21729;58.392;15.656;2023-03-16T02:37:32;2.80;;;1.00;;
35606;SDS011;21729;58.392;15.656;2023-03-16T02:39:59;2.50;;;1.10;;
35606;SDS011;21729;58.392;15.656;2023-03-16T02:42:28;2.10;;;1.00;;
35606;SDS011;21729;58.392;15.656;2023-03-16T02:44:56;3.30;;;0.82;;
35606;SDS011;21729;58.392;15.656;2023-03-16T02:47:28;3.38;;;1.13;;
35606;SDS011;21729;58.392;15.656;2023-03-16T02:49:59;2.38;;;1.00;;
35606;SDS011;21729;58.392;15.656;2023-03-16T02:52:30;1.90;;;1.00;;
35606;SDS011;21729;58.392;15.656;2023-03-16T02:54:58;2.58;;;1.23;;
35606;SDS011;21729;58.392;15.656;2023-03-16T02:57:25;2.35;;;1.00;;
35606;SDS011;21729;58.392;15.656;2023-03-16T02:59:52;3.33;;;1.17;;
35606;SDS011;21729;58.392;15.656;2023-03-16T03:02:19;3.50;;;1.10;;
35606;SDS011;21729;58.392;15.656;2023-03-16T03:04:48;3.67;;;1.52;;
35606;SDS011;21729;58.392;15.656;2023-03-16T03:07:19;3.40;;;1.03;;
35606;SDS011;21729;58.392;15.656;2023-03-16T03:09:56;4.10;;;1.27;;
35606;SDS011;21729;58.392;15.656;2023-03-16T03:12:23;3.05;;;1.10;;
35606;SDS011;21729;58.392;15.656;2023-03-16T03:14:50;2.97;;;1.08;;
35606;SDS011;21729;58.392;15.656;2023-03-16T03:17:17;2.38;;;1.05;;
35606;SDS011;21729;58.392;15.656;2023-03-16T03:19:44;5.40;;;1.10;;
35606;SDS011;21729;58.392;15.656;2023-03-16T03:22:13;3.13;;;1.38;;
35606;SDS011;21729;58.392;15.656;2023-03-16T03:24:42;3.95;;;1.20;;
35606;SDS011;21729;58.392;15.656;2023-03-16T03:27:09;4.53;;;1.17;;
35606;SDS011;21729;58.392;15.656;2023-03-16T03:29:37;4.35;;;1.05;;
35606;SDS011;21729;58.392;15.656;2023-03-16T03:32:04;2.93;;;1.30;;
35606;SDS011;21729;58.392;15.656;2023-03-16T03:34:32;4.35;;;1.40;;
35606;SDS011;21729;58.392;15.656;2023-03-16T03:36:59;4.55;;;1.20;;
35606;SDS011;21729;58.392;15.656;2023-03-16T03:39:28;2.90;;;1.00;;
35606;SDS011;21729;58.392;15.656;2023-03-16T03:41:55;3.35;;;1.25;;
35606;SDS011;21729;58.392;15.656;2023-03-16T03:44:22;4.28;;;1.35;;
35606;SDS011;21729;58.392;15.656;2023-03-16T03:46:51;2.75;;;1.13;;
35606;SDS011;21729;58.392;15.656;2023-03-16T03:49:18;2.08;;;1.02;;
35606;SDS011;21729;58.392;15.656;2023-03-16T03:51:45;3.70;;;1.33;;
35606;SDS011;21729;58.392;15.656;2023-03-16T03:54:12;2.33;;;1.20;;
35606;SDS011;21729;58.392;15.656;2023-03-16T03:56:41;4.22;;;1.30;;
35606;SDS011;21729;58.392;15.656;2023-03-16T03:59:08;4.50;;;1.10;;
35606;SDS011;21729;58.392;15.656;2023-03-16T04:01:35;3.78;;;1.52;;
35606;SDS011;21729;58.392;15.656;2023-03-16T04:04:02;4.55;;;1.40;;
35606;SDS011;21729;58.392;15.656;2023-03-16T04:06:29;4.50;;;1.10;;
35606;SDS011;21729;58.392;15.656;2023-03-16T04:08:56;3.20;;;1.20;;
35606;SDS011;21729;58.392;15.656;2023-03-16T04:11:23;3.63;;;1.20;;
35606;SDS011;21729;58.392;15.656;2023-03-16T04:13:52;2.45;;;1.30;;
35606;SDS011;21729;58.392;15.656;2023-03-16T04:16:19;3.88;;;1.20;;
35606;SDS011;21729;58.392;15.656;2023-03-16T04:18:46;4.77;;;1.40;;
35606;SDS011;21729;58.392;15.656;2023-03-16T04:21:14;5.70;;;1.90;;
35606;SDS011;21729;58.392;15.656;2023-03-16T04:23:42;6.53;;;1.30;;
35606;SDS011;21729;58.392;15.656;2023-03-16T04:26:09;3.40;;;1.30;;
35606;SDS011;21729;58.392;15.656;2023-03-16T04:28:36;3.95;;;1.20;;
35606;SDS011;21729;58.392;15.656;2023-03-16T04:31:06;4.82;;;1.30;;
35606;SDS011;21729;58.392;15.656;2023-03-16T04:33:35;2.65;;;1.20;;
35606;SDS011;21729;58.392;15.656;2023-03-16T04:36:04;3.88;;;1.40;;
35606;SDS011;21729;58.392;15.656;2023-03-16T04:38:32;3.85;;;1.33;;
35606;SDS011;21729;58.392;15.656;2023-03-16T04:41:01;4.32;;;1.40;;
35606;SDS011;21729;58.392;15.656;2023-03-16T04:43:29;2.95;;;1.20;;
35606;SDS011;21729;58.392;15.656;2023-03-16T04:45:58;5.40;;;1.45;;
35606;SDS011;21729;58.392;15.656;2023-03-16T04:48:27;3.90;;;1.55;;
35606;SDS011;21729;58.392;15.656;2023-03-16T04:50:54;6.85;;;1.40;;
35606;SDS011;21729;58.392;15.656;2023-03-16T04:53:21;3.85;;;1.33;;
35606;SDS011;21729;58.392;15.656;2023-03-16T04:55:48;2.63;;;1.20;;
35606;SDS011;21729;58.392;15.656;2023-03-16T04:58:16;3.08;;;1.35;;
35606;SDS011;21729;58.392;15.656;2023-03-16T05:00:43;4.00;;;1.15;;
35606;SDS011;21729;58.392;15.656;2023-03-16T05:03:10;4.97;;;1.42;;
35606;SDS011;21729;58.392;15.656;2023-03-16T05:05:39;3.65;;;1.50;;
35606;SDS011;21729;58.392;15.656;2023-03-16T05:08:07;3.92;;;1.35;;
35606;SDS011;21729;58.392;15.656;2023-03-16T05:10:36;3.20;;;1.27;;
35606;SDS011;21729;58.392;15.656;2023-03-16T05:13:04;3.65;;;1.50;;
35606;SDS011;21729;58.392;15.656;2023-03-16T05:15:32;5.47;;;1.45;;
35606;SDS011;21729;58.392;15.656;2023-03-16T05:17:59;6.15;;;1.70;;
35606;SDS011;21729;58.392;15.656;2023-03-16T05:20:26;3.85;;;1.05;;
35606;SDS011;21729;58.392;15.656;2023-03-16T05:22:55;4.85;;;1.40;;
35606;SDS011;21729;58.392;15.656;2023-03-16T05:25:22;6.32;;;1.27;;
35606;SDS011;21729;58.392;15.656;2023-03-16T05:27:50;4.05;;;1.40;;
35606;SDS011;21729;58.392;15.656;2023-03-16T05:30:18;4.30;;;1.58;;
35606;SDS011;21729;58.392;15.656;2023-03-16T05:32:46;3.40;;;1.40;;
35606;SDS011;21729;58.392;15.656;2023-03-16T05:35:13;2.78;;;1.40;;
35606;SDS011;21729;58.392;15.656;2023-03-16T05:37:40;5.68;;;1.67;;
35606;SDS011;21729;58.392;15.656;2023-03-16T05:40:11;6.45;;;1.60;;
35606;SDS011;21729;58.392;15.656;2023-03-16T05:42:43;5.47;;;1.50;;
35606;SDS011;21729;58.392;15.656;2023-03-16T05:45:11;3.92;;;1.65;;
35606;SDS011;21729;58.392;15.656;2023-03-16T05:47:39;5.85;;;1.63;;
35606;SDS011;21729;58.392;15.656;2023-03-16T05:50:08;5.22;;;1.50;;
35606;SDS011;21729;58.392;15.656;2023-03-16T05:52:36;3.80;;;1.42;;
35606;SDS011;21729;58.392;15.656;2023-03-16T05:55:05;5.55;;;1.45;;
35606;SDS011;21729;58.392;15.656;2023-03-16T05:57:35;4.80;;;1.52;;
35606;SDS011;21729;58.392;15.656;2023-03-16T06:00:03;6.97;;;1.80;;
35606;SDS011;21729;58.392;15.656;2023-03-16T06:02:36;7.60;;;1.73;;
35606;SDS011;21729;58.392;15.656;2023-03-16T06:05:04;6.05;;;1.60;;
35606;SDS011;21729;58.392;15.656;2023-03-16T06:07:32;7.80;;;1.42;;
35606;SDS011;21729;58.392;15.656;2023-03-16T06:09:59;5.60;;;1.52;;
35606;SDS011;21729;58.392;15.656;2023-03-16T06:12:27;6.30;;;1.42;;
35606;SDS011;21729;58.392;15.656;2023-03-16T06:14:55;5.60;;;1.55;;
35606;SDS011;21729;58.392;15.656;2023-03-16T06:17:22;7.53;;;1.50;;
35606;SDS011;21729;58.392;15.656;2023-03-16T06:19:49;5.43;;;1.38;;
35606;SDS011;21729;58.392;15.656;2023-03-16T06:22:17;3.35;;;1.38;;
35606;SDS011;21729;58.392;15.656;2023-03-16T06:24:44;5.70;;;2.05;;
35606;SDS011;21729;58.392;15.656;2023-03-16T06:27:11;4.95;;;1.40;;
35606;SDS011;21729;58.392;15.656;2023-03-16T06:29:38;4.30;;;1.40;;
35606;SDS011;21729;58.392;15.656;2023-03-16T06:32:07;5.13;;;1.30;;
35606;SDS011;21729;58.392;15.656;2023-03-16T06:34:35;4.93;;;1.38;;
35606;SDS011;21729;58.392;15.656;2023-03-16T06:37:02;5.45;;;1.75;;
35606;SDS011;21729;58.392;15.656;2023-03-16T06:39:30;5.23;;;1.87;;
35606;SDS011;21729;58.392;15.656;2023-03-16T06:41:57;5.00;;;1.30;;
35606;SDS011;21729;58.392;15.656;2023-03-16T06:44:24;4.85;;;1.80;;
35606;SDS011;21729;58.392;15.656;2023-03-16T06:46:51;5.18;;;1.85;;
35606;SDS011;21729;58.392;15.656;2023-03-16T06:49:20;4.83;;;1.60;;
35606;SDS011;21729;58.392;15.656;2023-03-16T06:51:47;5.45;;;1.50;;
35606;SDS011;21729;58.392;15.656;2023-03-16T06:54:14;3.23;;;1.20;;
35606;SDS011;21729;58.392;15.656;2023-03-16T06:56:42;5.97;;;1.25;;
35606;SDS011;21729;58.392;15.656;2023-03-16T06:59:09;8.00;;;1.60;;
35606;SDS011;21729;58.392;15.656;2023-03-16T07:01:36;6.07;;;1.70;;
35606;SDS011;21729;58.392;15.656;2023-03-16T07:04:03;6.40;;;2.00;;
35606;SDS011;21729;58.392;15.656;2023-03-16T07:06:32;6.47;;;1.67;;
35606;SDS011;21729;58.392;15.656;2023-03-16T07:08:59;7.55;;;1.80;;
35606;SDS011;21729;58.392;15.656;2023-03-16T07:11:27;4.57;;;1.43;;
35606;SDS011;21729;58.392;15.656;2023-03-16T07:13:55;6.57;;;1.52;;
35606;SDS011;21729;58.392;15.656;2023-03-16T07:16:22;6.20;;;1.85;;
35606;SDS011;21729;58.392;15.656;2023-03-16T07:18:50;6.88;;;1.55;;
35606;SDS011;21729;58.392;15.656;2023-03-16T07:21:17;4.97;;;1.48;;
35606;SDS011;21729;58.392;15.656;2023-03-16T07:23:46;3.50;;;1.30;;
35606;SDS011;21729;58.392;15.656;2023-03-16T07:26:13;6.90;;;1.52;;
35606;SDS011;21729;58.392;15.656;2023-03-16T07:28:40;5.55;;;1.60;;
35606;SDS011;21729;58.392;15.656;2023-03-16T07:31:07;5.75;;;1.67;;
35606;SDS011;21729;58.392;15.656;2023-03-16T07:33:34;3.35;;;1.48;;
35606;SDS011;21729;58.392;15.656;2023-03-16T07:36:02;7.47;;;1.67;;
35606;SDS011;21729;58.392;15.656;2023-03-16T07:38:30;6.17;;;1.70;;
35606;SDS011;21729;58.392;15.656;2023-03-16T07:40:59;4.07;;;1.52;;
35606;SDS011;21729;58.392;15.656;2023-03-16T07:43:26;6.03;;;1.25;;
35606;SDS011;21729;58.392;15.656;2023-03-16T07:45:54;6.45;;;1.52;;
35606;SDS011;21729;58.392;15.656;2023-03-16T07:48:21;5.10;;;1.27;;
35606;SDS011;21729;58.392;15.656;2023-03-16T07:50:48;4.45;;;1.20;;
35606;SDS011;21729;58.392;15.656;2023-03-16T07:53:16;7.60;;;1.87;;
35606;SDS011;21729;58.392;15.656;2023-03-16T07:55:43;3.38;;;1.15;;
35606;SDS011;21729;58.392;15.656;2023-03-16T07:58:12;6.35;;;1.40;;
35606;SDS011;21729;58.392;15.656;2023-03-16T08:00:39;5.45;;;1.30;;
35606;SDS011;21729;58.392;15.656;2023-03-16T08:03:08;3.70;;;1.17;;
35606;SDS011;21729;58.392;15.656;2023-03-16T08:05:35;4.28;;;1.30;;
35606;SDS011;21729;58.392;15.656;2023-03-16T08:08:02;5.75;;;1.30;;
35606;SDS011;21729;58.392;15.656;2023-03-16T08:10:33;4.28;;;1.20;;
35606;SDS011;21729;58.392;15.656;2023-03-16T08:13:02;2.85;;;1.10;;
35606;SDS011;21729;58.392;15.656;2023-03-16T08:15:31;3.75;;;1.10;;
35606;SDS011;21729;58.392;15.656;2023-03-16T08:17:59;3.47;;;1.30;;
35606;SDS011;21729;58.392;15.656;2023-03-16T08:20:28;4.57;;;1.60;;
35606;SDS011;21729;58.392;15.656;2023-03-16T08:22:55;4.97;;;1.30;;
35606;SDS011;21729;58.392;15.656;2023-03-16T08:25:22;4.05;;;1.30;;
35606;SDS011;21729;58.392;15.656;2023-03-16T08:27:50;4.63;;;1.00;;
35606;SDS011;21729;58.392;15.656;2023-03-16T08:30:18;2.83;;;0.88;;
35606;SDS011;21729;58.392;15.656;2023-03-16T08:32:48;5.00;;;1.10;;
35606;SDS011;21729;58.392;15.656;2023-03-16T08:35:15;2.42;;;1.00;;
35606;SDS011;21729;58.392;15.656;2023-03-16T08:37:43;5.93;;;1.05;;
35606;SDS011;21729;58.392;15.656;2023-03-16T08:40:11;3.33;;;1.10;;
35606;SDS011;21729;58.392;15.656;2023-03-16T08:42:40;2.35;;;1.00;;
35606;SDS011;21729;58.392;15.656;2023-03-16T08:45:09;4.43;;;1.33;;
35606;SDS011;21729;58.392;15.656;2023-03-16T08:47:37;2.90;;;1.10;;
35606;SDS011;21729;58.392;15.656;2023-03-16T08:50:06;5.22;;;1.23;;
35606;SDS011;21729;58.392;15.656;2023-03-16T08:52:36;4.60;;;1.10;;
35606;SDS011;21729;58.392;15.656;2023-03-16T08:55:03;3.92;;;1.38;;
35606;SDS011;21729;58.392;15.656;2023-03-16T08:57:31;5.15;;;1.10;;
35606;SDS011;21729;58.392;15.656;2023-03-16T08:59:58;3.83;;;1.30;;
35606;SDS011;21729;58.392;15.656;2023-03-16T09:02:26;4.78;;;1.40;;
35606;SDS011;21729;58.392;15.656;2023-03-16T09:04:53;3.15;;;1.20;;
35606;SDS011;21729;58.392;15.656;2023-03-16T09:07:21;3.53;;;1.27;;
35606;SDS011;21729;58.392;15.656;2023-03-16T09:09:49;4.50;;;1.48;;
35606;SDS011;21729;58.392;15.656;2023-03-16T09:12:16;3.25;;;1.08;;
35606;SDS011;21729;58.392;15.656;2023-03-16T09:14:44;4.68;;;1.10;;
35606;SDS011;21729;58.392;15.656;2023-03-16T09:17:13;5.88;;;1.23;;
35606;SDS011;21729;58.392;15.656;2023-03-16T09:19:40;4.85;;;1.40;;
35606;SDS011;21729;58.392;15.656;2023-03-16T09:22:07;6.47;;;1.35;;
35606;SDS011;21729;58.392;15.656;2023-03-16T09:24:36;2.67;;;1.27;;
35606;SDS011;21729;58.392;15.656;2023-03-16T09:27:03;4.88;;;1.35;;
35606;SDS011;21729;58.392;15.656;2023-03-16T09:29:30;5.32;;;1.23;;
35606;SDS011;21729;58.392;15.656;2023-03-16T09:31:58;3.88;;;1.30;;
35606;SDS011;21729;58.392;15.656;2023-03-16T09:34:25;2.30;;;1.08;;
35606;SDS011;21729;58.392;15.656;2023-03-16T09:36:53;3.17;;;1.30;;
35606;SDS011;21729;58.392;15.656;2023-03-16T09:39:20;6.18;;;1.52;;
35606;SDS011;21729;58.392;15.656;2023-03-16T09:41:51;4.38;;;1.00;;
35606;SDS011;21729;58.392;15.656;2023-03-16T09:44:27;3.35;;;1.10;;
35606;SDS011;21729;58.392;15.656;2023-03-16T09:47:04;3.20;;;1.33;;
35606;SDS011;21729;58.392;15.656;2023-03-16T09:49:36;2.40;;;1.10;;
35606;SDS011;21729;58.392;15.656;2023-03-16T09:52:11;5.57;;;1.30;;
35606;SDS011;21729;58.392;15.656;2023-03-16T09:54:48;3.03;;;1.17;;
35606;SDS011;21729;58.392;15.656;2023-03-16T09:57:25;5.18;;;1.25;;
35606;SDS011;21729;58.392;15.656;2023-03-16T09:59:53;3.87;;;1.13;;
35606;SDS011;21729;58.392;15.656;2023-03-16T10:05:12;4.18;;;1.23;;
35606;SDS011;21729;58.392;15.656;2023-03-16T10:07:46;2.50;;;1.20;;
35606;SDS011;21729;58.392;15.656;2023-03-16T10:10:28;4.60;;;1.15;;
35606;SDS011;21729;58.392;15.656;2023-03-16T10:13:08;4.22;;;1.25;;
35606;SDS011;21729;58.392;15.656;2023-03-16T10:15:42;8.55;;;1.40;;
35606;SDS011;21729;58.392;15.656;2023-03-16T10:18:13;3.63;;;1.60;;
35606;SDS011;21729;58.392;15.656;2023-03-16T10:20:43;2.35;;;1.20;;
35606;SDS011;21729;58.392;15.656;2023-03-16T10:23:13;4.32;;;1.40;;
35606;SDS011;21729;58.392;15.656;2023-03-16T10:25:45;3.53;;;1.08;;
35606;SDS011;21729;58.392;15.656;2023-03-16T10:28:15;3.80;;;1.50;;
35606;SDS011;21729;58.392;15.656;2023-03-16T10:30:45;2.75;;;1.35;;
35606;SDS011;21729;58.392;15.656;2023-03-16T10:33:16;4.10;;;1.23;;
35606;SDS011;21729;58.392;15.656;2023-03-16T10:35:51;4.32;;;1.20;;
35606;SDS011;21729;58.392;15.656;2023-03-16T10:38:30;4.05;;;1.42;;
35606;SDS011;21729;58.392;15.656;2023-03-16T10:41:03;2.50;;;1.17;;
35606;SDS011;21729;58.392;15.656;2023-03-16T10:43:41;5.45;;;1.30;;
35606;SDS011;21729;58.392;15.656;2023-03-16T10:46:09;3.55;;;1.42;;
35606;SDS011;21729;58.392;15.656;2023-03-16T10:48:37;6.22;;;1.25;;
35606;SDS011;21729;58.392;15.656;2023-03-16T10:51:06;4.38;;;1.40;;
35606;SDS011;21729;58.392;15.656;2023-03-16T10:53:39;3.10;;;1.30;;
35606;SDS011;21729;58.392;15.656;2023-03-16T10:56:09;3.67;;;1.30;;
35606;SDS011;21729;58.392;15.656;2023-03-16T10:58:45;4.28;;;1.25;;
35606;SDS011;21729;58.392;15.656;2023-03-16T11:01:16;3.33;;;1.40;;
35606;SDS011;21729;58.392;15.656;2023-03-16T11:03:47;4.05;;;1.25;;
35606;SDS011;21729;58.392;15.656;2023-03-16T11:06:18;2.72;;;1.50;;
35606;SDS011;21729;58.392;15.656;2023-03-16T11:08:48;3.90;;;1.30;;
35606;SDS011;21729;58.392;15.656;2023-03-16T11:11:20;2.85;;;1.35;;
35606;SDS011;21729;58.392;15.656;2023-03-16T11:13:55;4.43;;;1.42;;
35606;SDS011;21729;58.392;15.656;2023-03-16T11:16:25;3.92;;;1.60;;
35606;SDS011;21729;58.392;15.656;2023-03-16T11:18:57;2.83;;;1.30;;
35606;SDS011;21729;58.392;15.656;2023-03-16T11:21:36;3.13;;;1.30;;
35606;SDS011;21729;58.392;15.656;2023-03-16T11:24:09;3.53;;;1.40;;
35606;SDS011;21729;58.392;15.656;2023-03-16T11:26:41;3.85;;;1.70;;
35606;SDS011;21729;58.392;15.656;2023-03-16T11:29:15;3.85;;;1.50;;
35606;SDS011;21729;58.392;15.656;2023-03-16T11:31:49;4.45;;;1.50;;
35606;SDS011;21729;58.392;15.656;2023-03-16T11:34:21;3.60;;;1.35;;
35606;SDS011;21729;58.392;15.656;2023-03-16T11:36:53;3.97;;;1.10;;
35606;SDS011;21729;58.392;15.656;2023-03-16T11:39:29;3.72;;;1.33;;
35606;SDS011;21729;58.392;15.656;2023-03-16T11:42:17;3.25;;;1.40;;
35606;SDS011;21729;58.392;15.656;2023-03-16T11:44:54;3.00;;;1.20;;
35606;SDS011;21729;58.392;15.656;2023-03-16T11:47:32;3.22;;;1.40;;
35606;SDS011;21729;58.392;15.656;2023-03-16T11:50:18;3.88;;;1.33;;
35606;SDS011;21729;58.392;15.656;2023-03-16T11:52:54;2.60;;;1.50;;
35606;SDS011;21729;58.392;15.656;2023-03-16T11:55:28;3.67;;;1.30;;
35606;SDS011;21729;58.392;15.656;2023-03-16T11:58:13;2.50;;;1.40;;
35606;SDS011;21729;58.392;15.656;2023-03-16T12:00:55;3.13;;;1.30;;
35606;SDS011;21729;58.392;15.656;2023-03-16T12:06:32;2.95;;;1.30;;
35606;SDS011;21729;58.392;15.656;2023-03-16T12:12:14;4.85;;;1.30;;
35606;SDS011;21729;58.392;15.656;2023-03-16T12:14:59;4.43;;;1.60;;
35606;SDS011;21729;58.392;15.656;2023-03-16T12:17:40;6.00;;;1.20;;
35606;SDS011;21729;58.392;15.656;2023-03-16T12:20:12;3.70;;;1.20;;
35606;SDS011;21729;58.392;15.656;2023-03-16T12:22:44;2.97;;;1.10;;
35606;SDS011;21729;58.392;15.656;2023-03-16T12:25:16;4.30;;;1.10;;
35606;SDS011;21729;58.392;15.656;2023-03-16T12:27:46;5.03;;;1.55;;
35606;SDS011;21729;58.392;15.656;2023-03-16T12:30:21;2.92;;;1.13;;
35606;SDS011;21729;58.392;15.656;2023-03-16T12:33:02;3.30;;;1.25;;
35606;SDS011;21729;58.392;15.656;2023-03-16T12:35:35;3.40;;;1.30;;
35606;SDS011;21729;58.392;15.656;2023-03-16T12:38:18;2.38;;;1.38;;
35606;SDS011;21729;58.392;15.656;2023-03-16T12:41:16;3.95;;;1.48;;
35606;SDS011;21729;58.392;15.656;2023-03-16T12:43:59;4.30;;;1.87;;
35606;SDS011;21729;58.392;15.656;2023-03-16T12:46:38;4.13;;;1.33;;
35606;SDS011;21729;58.392;15.656;2023-03-16T12:49:15;2.47;;;1.20;;
35606;SDS011;21729;58.392;15.656;2023-03-16T12:51:43;3.45;;;1.38;;
35606;SDS011;21729;58.392;15.656;2023-03-16T12:54:20;6.15;;;1.60;;
35606;SDS011;21729;58.392;15.656;2023-03-16T12:56:48;6.07;;;1.40;;
35606;SDS011;21729;58.392;15.656;2023-03-16T12:59:18;6.22;;;1.50;;
35606;SDS011;21729;58.392;15.656;2023-03-16T13:01:48;3.30;;;1.60;;
35606;SDS011;21729;58.392;15.656;2023-03-16T13:04:19;3.80;;;1.30;;
35606;SDS011;21729;58.392;15.656;2023-03-16T13:06:49;2.53;;;1.30;;
35606;SDS011;21729;58.392;15.656;2023-03-16T13:09:27;3.78;;;1.50;;
35606;SDS011;21729;58.392;15.656;2023-03-16T13:11:56;3.30;;;1.30;;
35606;SDS011;21729;58.392;15.656;2023-03-16T13:14:31;3.30;;;1.40;;
35606;SDS011;21729;58.392;15.656;2023-03-16T13:17:10;2.70;;;1.20;;
35606;SDS011;21729;58.392;15.656;2023-03-16T13:20:01;4.70;;;1.25;;
35606;SDS011;21729;58.392;15.656;2023-03-16T13:22:48;4.40;;;1.48;;
35606;SDS011;21729;58.392;15.656;2023-03-16T13:25:18;3.38;;;1.55;;
35606;SDS011;21729;58.392;15.656;2023-03-16T13:27:51;3.15;;;1.48;;
35606;SDS011;21729;58.392;15.656;2023-03-16T13:30:20;5.75;;;1.60;;
35606;SDS011;21729;58.392;15.656;2023-03-16T13:32:51;2.72;;;1.20;;
35606;SDS011;21729;58.392;15.656;2023-03-16T13:35:23;4.18;;;1.20;;
35606;SDS011;21729;58.392;15.656;2023-03-16T13:37:52;2.97;;;1.20;;
35606;SDS011;21729;58.392;15.656;2023-03-16T13:40:20;3.03;;;1.23;;
35606;SDS011;21729;58.392;15.656;2023-03-16T13:42:49;7.25;;;1.65;;
35606;SDS011;21729;58.392;15.656;2023-03-16T13:45:20;3.93;;;1.30;;
35606;SDS011;21729;58.392;15.656;2023-03-16T13:47:48;2.85;;;1.20;;
35606;SDS011;21729;58.392;15.656;2023-03-16T13:50:16;3.90;;;1.40;;
35606;SDS011;21729;58.392;15.656;2023-03-16T13:52:51;4.32;;;1.30;;
35606;SDS011;21729;58.392;15.656;2023-03-16T13:55:24;5.22;;;1.17;;
35606;SDS011;21729;58.392;15.656;2023-03-16T13:57:55;3.00;;;1.40;;
35606;SDS011;21729;58.392;15.656;2023-03-16T14:00:24;3.58;;;1.20;;
35606;SDS011;21729;58.392;15.656;2023-03-16T14:02:57;5.70;;;1.30;;
35606;SDS011;21729;58.392;15.656;2023-03-16T14:05:29;3.85;;;1.63;;
35606;SDS011;21729;58.392;15.656;2023-03-16T14:08:00;2.45;;;1.30;;
35606;SDS011;21729;58.392;15.656;2023-03-16T14:10:30;3.63;;;1.35;;
35606;SDS011;21729;58.392;15.656;2023-03-16T14:13:05;2.45;;;1.33;;
35606;SDS011;21729;58.392;15.656;2023-03-16T14:15:49;4.53;;;1.30;;
35606;SDS011;21729;58.392;15.656;2023-03-16T14:18:19;4.90;;;1.67;;
35606;SDS011;21729;58.392;15.656;2023-03-16T14:20:49;4.45;;;1.30;;
35606;SDS011;21729;58.392;15.656;2023-03-16T14:23:19;4.10;;;1.33;;
35606;SDS011;21729;58.392;15.656;2023-03-16T14:25:48;3.97;;;1.15;;
35606;SDS011;21729;58.392;15.656;2023-03-16T14:28:18;2.92;;;1.23;;
35606;SDS011;21729;58.392;15.656;2023-03-16T14:30:50;3.97;;;1.10;;
35606;SDS011;21729;58.392;15.656;2023-03-16T14:33:25;3.83;;;1.25;;
35606;SDS011;21729;58.392;15.656;2023-03-16T14:35:55;6.55;;;1.40;;
35606;SDS011;21729;58.392;15.656;2023-03-16T14:38:29;4.78;;;1.27;;
35606;SDS011;21729;58.392;15.656;2023-03-16T14:41:00;3.10;;;1.20;;
35606;SDS011;21729;58.392;15.656;2023-03-16T14:43:30;5.22;;;1.25;;
35606;SDS011;21729;58.392;15.656;2023-03-16T14:46:01;3.08;;;1.23;;
35606;SDS011;21729;58.392;15.656;2023-03-16T14:48:30;7.70;;;1.43;;
35606;SDS011;21729;58.392;15.656;2023-03-16T14:50:59;4.05;;;1.17;;
35606;SDS011;21729;58.392;15.656;2023-03-16T14:53:29;4.43;;;1.40;;
35606;SDS011;21729;58.392;15.656;2023-03-16T14:55:57;3.53;;;1.20;;
35606;SDS011;21729;58.392;15.656;2023-03-16T14:58:25;3.40;;;1.17;;